< < Back
Terminal Aerodrome Forecast


Current Version              Previous Versions:   1  2  3  4  5  6  7  8  9  

Terminal Aerodrome Forecast

524
FTUS42 KILM 281720
TAFFLO
TAF
KFLO 281720Z 2818/2918 24012G19KT P6SM FEW050
     FM290100 22006KT P6SM SKC
     FM291200 24008KT P6SM SKC
     FM291400 26012KT P6SM SKC=



Latest METAR

254
SAUS70 KWBC 291200 RRH
MTRFLO
METAR KFLO 291153Z 24009KT 10SM CLR 27/21 A2994 RMK AO2 SLP135 T02720211
10278 20256 53006


USA.gov is the U.S. government's official web portal to all federal, state and local government web resources and services.